sensor_id;sensor_type;location;lat;lon;timestamp;P1;durP1;ratioP1;P2;durP2;ratioP2
21901;SDS011;11115;46.038;14.612;2022-07-23T00:00:47;8.13;;;6.00;;
21901;SDS011;11115;46.038;14.612;2022-07-23T00:03:17;12.70;;;6.38;;
21901;SDS011;11115;46.038;14.612;2022-07-23T00:05:51;7.25;;;5.63;;
21901;SDS011;11115;46.038;14.612;2022-07-23T00:08:24;8.93;;;5.63;;
21901;SDS011;11115;46.038;14.612;2022-07-23T00:13:26;6.82;;;6.18;;
21901;SDS011;11115;46.038;14.612;2022-07-23T00:16:02;7.85;;;6.45;;
21901;SDS011;11115;46.038;14.612;2022-07-23T00:18:39;12.20;;;6.03;;
21901;SDS011;11115;46.038;14.612;2022-07-23T00:21:12;15.40;;;6.00;;
21901;SDS011;11115;46.038;14.612;2022-07-23T00:23:43;7.15;;;5.90;;
21901;SDS011;11115;46.038;14.612;2022-07-23T00:26:17;9.43;;;6.68;;
21901;SDS011;11115;46.038;14.612;2022-07-23T00:28:45;9.43;;;7.43;;
21901;SDS011;11115;46.038;14.612;2022-07-23T00:31:24;15.13;;;7.75;;
21901;SDS011;11115;46.038;14.612;2022-07-23T00:33:59;10.27;;;7.30;;
21901;SDS011;11115;46.038;14.612;2022-07-23T00:36:29;8.27;;;6.95;;
21901;SDS011;11115;46.038;14.612;2022-07-23T00:39:03;10.55;;;6.65;;
21901;SDS011;11115;46.038;14.612;2022-07-23T00:41:33;9.82;;;7.38;;
21901;SDS011;11115;46.038;14.612;2022-07-23T00:44:19;7.32;;;6.63;;
21901;SDS011;11115;46.038;14.612;2022-07-23T00:46:54;9.18;;;7.60;;
21901;SDS011;11115;46.038;14.612;2022-07-23T00:49:31;12.52;;;8.35;;
21901;SDS011;11115;46.038;14.612;2022-07-23T00:52:08;11.25;;;8.77;;
21901;SDS011;11115;46.038;14.612;2022-07-23T00:54:44;11.48;;;9.10;;
21901;SDS011;11115;46.038;14.612;2022-07-23T00:57:16;11.60;;;8.18;;
21901;SDS011;11115;46.038;14.612;2022-07-23T00:59:56;9.27;;;8.30;;
21901;SDS011;11115;46.038;14.612;2022-07-23T01:02:29;11.07;;;8.30;;
21901;SDS011;11115;46.038;14.612;2022-07-23T01:07:37;11.95;;;8.50;;
21901;SDS011;11115;46.038;14.612;2022-07-23T01:10:08;13.75;;;9.50;;
21901;SDS011;11115;46.038;14.612;2022-07-23T01:12:53;16.45;;;9.35;;
21901;SDS011;11115;46.038;14.612;2022-07-23T01:15:25;11.88;;;9.27;;
21901;SDS011;11115;46.038;14.612;2022-07-23T01:17:55;12.95;;;9.18;;
21901;SDS011;11115;46.038;14.612;2022-07-23T01:20:33;11.52;;;8.70;;
21901;SDS011;11115;46.038;14.612;2022-07-23T01:23:09;12.52;;;8.85;;
21901;SDS011;11115;46.038;14.612;2022-07-23T01:25:55;11.65;;;9.02;;
21901;SDS011;11115;46.038;14.612;2022-07-23T01:28:27;11.32;;;8.55;;
21901;SDS011;11115;46.038;14.612;2022-07-23T01:30:59;12.35;;;8.80;;
21901;SDS011;11115;46.038;14.612;2022-07-23T01:33:37;10.48;;;8.73;;
21901;SDS011;11115;46.038;14.612;2022-07-23T01:36:24;13.50;;;10.43;;
21901;SDS011;11115;46.038;14.612;2022-07-23T01:39:07;15.38;;;10.23;;
21901;SDS011;11115;46.038;14.612;2022-07-23T01:41:44;13.02;;;10.07;;
21901;SDS011;11115;46.038;14.612;2022-07-23T01:44:25;15.70;;;11.75;;
21901;SDS011;11115;46.038;14.612;2022-07-23T01:46:58;24.15;;;10.48;;
21901;SDS011;11115;46.038;14.612;2022-07-23T01:49:29;12.07;;;10.18;;
21901;SDS011;11115;46.038;14.612;2022-07-23T01:52:17;12.18;;;10.90;;
21901;SDS011;11115;46.038;14.612;2022-07-23T01:54:48;15.93;;;10.45;;
21901;SDS011;11115;46.038;14.612;2022-07-23T01:57:27;13.65;;;9.60;;
21901;SDS011;11115;46.038;14.612;2022-07-23T02:00:07;13.60;;;10.57;;
21901;SDS011;11115;46.038;14.612;2022-07-23T02:02:48;11.98;;;10.13;;
21901;SDS011;11115;46.038;14.612;2022-07-23T02:05:18;15.55;;;10.23;;
21901;SDS011;11115;46.038;14.612;2022-07-23T02:07:49;15.27;;;10.35;;
21901;SDS011;11115;46.038;14.612;2022-07-23T02:10:27;11.07;;;9.45;;
21901;SDS011;11115;46.038;14.612;2022-07-23T02:13:10;16.80;;;10.15;;
21901;SDS011;11115;46.038;14.612;2022-07-23T02:15:56;11.32;;;9.73;;
21901;SDS011;11115;46.038;14.612;2022-07-23T02:18:33;12.65;;;9.93;;
21901;SDS011;11115;46.038;14.612;2022-07-23T02:21:10;11.70;;;10.25;;
21901;SDS011;11115;46.038;14.612;2022-07-23T02:23:44;17.27;;;11.20;;
21901;SDS011;11115;46.038;14.612;2022-07-23T02:26:15;12.63;;;11.02;;
21901;SDS011;11115;46.038;14.612;2022-07-23T02:28:53;14.80;;;11.65;;
21901;SDS011;11115;46.038;14.612;2022-07-23T02:31:28;14.57;;;10.70;;
21901;SDS011;11115;46.038;14.612;2022-07-23T02:34:07;12.77;;;11.05;;
21901;SDS011;11115;46.038;14.612;2022-07-23T02:36:39;13.75;;;12.25;;
21901;SDS011;11115;46.038;14.612;2022-07-23T02:39:25;14.35;;;11.30;;
21901;SDS011;11115;46.038;14.612;2022-07-23T02:44:41;14.07;;;11.13;;
21901;SDS011;11115;46.038;14.612;2022-07-23T02:47:18;16.20;;;11.38;;
21901;SDS011;11115;46.038;14.612;2022-07-23T02:50:03;19.00;;;11.40;;
21901;SDS011;11115;46.038;14.612;2022-07-23T02:52:41;14.13;;;10.63;;
21901;SDS011;11115;46.038;14.612;2022-07-23T02:55:14;17.00;;;10.60;;
21901;SDS011;11115;46.038;14.612;2022-07-23T02:57:50;12.38;;;10.63;;
21901;SDS011;11115;46.038;14.612;2022-07-23T03:00:36;13.75;;;10.07;;
21901;SDS011;11115;46.038;14.612;2022-07-23T03:03:10;12.77;;;9.98;;
21901;SDS011;11115;46.038;14.612;2022-07-23T03:05:46;13.93;;;9.80;;
21901;SDS011;11115;46.038;14.612;2022-07-23T03:08:23;13.55;;;10.88;;
21901;SDS011;11115;46.038;14.612;2022-07-23T03:11:03;16.67;;;10.10;;
21901;SDS011;11115;46.038;14.612;2022-07-23T03:13:45;16.83;;;11.25;;
21901;SDS011;11115;46.038;14.612;2022-07-23T03:16:19;14.57;;;10.55;;
21901;SDS011;11115;46.038;14.612;2022-07-23T03:18:50;14.40;;;10.75;;
21901;SDS011;11115;46.038;14.612;2022-07-23T03:21:21;13.02;;;10.45;;
21901;SDS011;11115;46.038;14.612;2022-07-23T03:23:52;15.40;;;12.75;;
21901;SDS011;11115;46.038;14.612;2022-07-23T03:26:30;13.82;;;10.93;;
21901;SDS011;11115;46.038;14.612;2022-07-23T03:29:02;16.50;;;12.30;;
21901;SDS011;11115;46.038;14.612;2022-07-23T03:31:34;12.63;;;10.13;;
21901;SDS011;11115;46.038;14.612;2022-07-23T03:34:08;16.92;;;10.90;;
21901;SDS011;11115;46.038;14.612;2022-07-23T03:36:38;12.25;;;10.80;;
21901;SDS011;11115;46.038;14.612;2022-07-23T03:39:10;16.73;;;10.48;;
21901;SDS011;11115;46.038;14.612;2022-07-23T03:41:44;18.85;;;11.13;;
21901;SDS011;11115;46.038;14.612;2022-07-23T03:44:18;16.10;;;12.38;;
21901;SDS011;11115;46.038;14.612;2022-07-23T03:46:51;16.13;;;12.52;;
21901;SDS011;11115;46.038;14.612;2022-07-23T03:49:23;15.55;;;12.82;;
21901;SDS011;11115;46.038;14.612;2022-07-23T03:51:55;11.68;;;10.48;;
21901;SDS011;11115;46.038;14.612;2022-07-23T03:57:23;15.50;;;10.95;;
21901;SDS011;11115;46.038;14.612;2022-07-23T04:00:07;20.67;;;11.65;;
21901;SDS011;11115;46.038;14.612;2022-07-23T04:02:49;13.95;;;12.02;;
21901;SDS011;11115;46.038;14.612;2022-07-23T04:05:23;19.20;;;12.40;;
21901;SDS011;11115;46.038;14.612;2022-07-23T04:08:04;23.83;;;11.88;;
21901;SDS011;11115;46.038;14.612;2022-07-23T04:10:48;16.73;;;11.68;;
21901;SDS011;11115;46.038;14.612;2022-07-23T04:13:25;21.08;;;12.93;;
21901;SDS011;11115;46.038;14.612;2022-07-23T04:16:07;17.58;;;12.95;;
21901;SDS011;11115;46.038;14.612;2022-07-23T04:18:51;16.15;;;12.75;;
21901;SDS011;11115;46.038;14.612;2022-07-23T04:21:23;22.42;;;12.45;;
21901;SDS011;11115;46.038;14.612;2022-07-23T04:23:55;15.00;;;11.48;;
21901;SDS011;11115;46.038;14.612;2022-07-23T04:26:29;15.63;;;11.82;;
21901;SDS011;11115;46.038;14.612;2022-07-23T04:29:00;21.23;;;12.77;;
21901;SDS011;11115;46.038;14.612;2022-07-23T04:31:32;23.95;;;12.90;;
21901;SDS011;11115;46.038;14.612;2022-07-23T04:34:06;18.55;;;12.27;;
21901;SDS011;11115;46.038;14.612;2022-07-23T04:36:38;15.35;;;12.73;;
21901;SDS011;11115;46.038;14.612;2022-07-23T04:39:10;16.77;;;12.55;;
21901;SDS011;11115;46.038;14.612;2022-07-23T04:41:46;18.88;;;13.77;;
21901;SDS011;11115;46.038;14.612;2022-07-23T04:44:22;19.58;;;13.85;;
21901;SDS011;11115;46.038;14.612;2022-07-23T04:46:59;25.58;;;13.20;;
21901;SDS011;11115;46.038;14.612;2022-07-23T04:49:41;23.27;;;14.38;;
21901;SDS011;11115;46.038;14.612;2022-07-23T04:52:14;30.08;;;16.83;;
21901;SDS011;11115;46.038;14.612;2022-07-23T04:54:46;22.33;;;13.85;;
21901;SDS011;11115;46.038;14.612;2022-07-23T04:57:29;28.92;;;15.07;;
21901;SDS011;11115;46.038;14.612;2022-07-23T05:00:10;25.27;;;15.60;;
21901;SDS011;11115;46.038;14.612;2022-07-23T05:02:47;23.35;;;15.85;;
21901;SDS011;11115;46.038;14.612;2022-07-23T05:05:19;25.02;;;16.10;;
21901;SDS011;11115;46.038;14.612;2022-07-23T05:08:04;21.27;;;16.70;;
21901;SDS011;11115;46.038;14.612;2022-07-23T05:10:41;26.05;;;16.25;;
21901;SDS011;11115;46.038;14.612;2022-07-23T05:13:20;21.33;;;15.90;;
21901;SDS011;11115;46.038;14.612;2022-07-23T05:15:56;21.55;;;16.13;;
21901;SDS011;11115;46.038;14.612;2022-07-23T05:18:38;22.08;;;16.30;;
21901;SDS011;11115;46.038;14.612;2022-07-23T05:21:08;16.88;;;15.07;;
21901;SDS011;11115;46.038;14.612;2022-07-23T05:23:43;22.50;;;15.65;;
21901;SDS011;11115;46.038;14.612;2022-07-23T05:26:14;20.38;;;13.32;;
21901;SDS011;11115;46.038;14.612;2022-07-23T05:28:48;23.02;;;14.38;;
21901;SDS011;11115;46.038;14.612;2022-07-23T05:33:56;23.92;;;15.13;;
21901;SDS011;11115;46.038;14.612;2022-07-23T05:39:10;23.45;;;15.48;;
21901;SDS011;11115;46.038;14.612;2022-07-23T05:41:47;18.95;;;13.80;;
21901;SDS011;11115;46.038;14.612;2022-07-23T05:44:22;15.77;;;13.30;;
21901;SDS011;11115;46.038;14.612;2022-07-23T05:47:01;17.50;;;15.15;;
21901;SDS011;11115;46.038;14.612;2022-07-23T05:49:35;19.40;;;15.32;;
21901;SDS011;11115;46.038;14.612;2022-07-23T05:52:43;20.50;;;15.32;;
21901;SDS011;11115;46.038;14.612;2022-07-23T05:55:33;23.00;;;13.90;;
21901;SDS011;11115;46.038;14.612;2022-07-23T05:58:12;25.02;;;13.68;;
21901;SDS011;11115;46.038;14.612;2022-07-23T06:00:48;17.83;;;14.52;;
21901;SDS011;11115;46.038;14.612;2022-07-23T06:03:47;18.48;;;15.93;;
21901;SDS011;11115;46.038;14.612;2022-07-23T06:06:43;27.63;;;15.45;;
21901;SDS011;11115;46.038;14.612;2022-07-23T06:09:30;23.42;;;14.13;;
21901;SDS011;11115;46.038;14.612;2022-07-23T06:12:05;29.33;;;15.38;;
21901;SDS011;11115;46.038;14.612;2022-07-23T06:14:37;30.85;;;15.52;;
21901;SDS011;11115;46.038;14.612;2022-07-23T06:17:16;30.65;;;14.95;;
21901;SDS011;11115;46.038;14.612;2022-07-23T06:19:53;20.88;;;14.43;;
21901;SDS011;11115;46.038;14.612;2022-07-23T06:22:23;25.40;;;14.25;;
21901;SDS011;11115;46.038;14.612;2022-07-23T06:25:07;28.48;;;14.02;;
21901;SDS011;11115;46.038;14.612;2022-07-23T06:27:47;36.25;;;15.50;;
21901;SDS011;11115;46.038;14.612;2022-07-23T06:30:17;24.15;;;16.75;;
21901;SDS011;11115;46.038;14.612;2022-07-23T06:32:50;43.35;;;17.80;;
21901;SDS011;11115;46.038;14.612;2022-07-23T06:35:45;30.60;;;16.33;;
21901;SDS011;11115;46.038;14.612;2022-07-23T06:38:16;23.55;;;16.42;;
21901;SDS011;11115;46.038;14.612;2022-07-23T06:40:56;43.63;;;16.83;;
21901;SDS011;11115;46.038;14.612;2022-07-23T06:43:28;36.83;;;16.90;;
21901;SDS011;11115;46.038;14.612;2022-07-23T06:46:02;27.42;;;16.60;;
21901;SDS011;11115;46.038;14.612;2022-07-23T06:48:37;28.42;;;17.58;;
21901;SDS011;11115;46.038;14.612;2022-07-23T06:51:12;40.33;;;18.00;;
21901;SDS011;11115;46.038;14.612;2022-07-23T06:53:46;27.60;;;16.90;;
21901;SDS011;11115;46.038;14.612;2022-07-23T06:56:27;47.70;;;19.27;;
21901;SDS011;11115;46.038;14.612;2022-07-23T06:58:59;32.63;;;17.02;;
21901;SDS011;11115;46.038;14.612;2022-07-23T07:01:43;43.88;;;19.48;;
21901;SDS011;11115;46.038;14.612;2022-07-23T07:04:13;38.50;;;18.15;;
21901;SDS011;11115;46.038;14.612;2022-07-23T07:07:00;34.88;;;17.63;;
21901;SDS011;11115;46.038;14.612;2022-07-23T07:09:39;24.00;;;18.02;;
21901;SDS011;11115;46.038;14.612;2022-07-23T07:12:12;48.78;;;19.42;;
21901;SDS011;11115;46.038;14.612;2022-07-23T07:14:48;33.38;;;20.45;;
21901;SDS011;11115;46.038;14.612;2022-07-23T07:17:23;31.25;;;19.17;;
21901;SDS011;11115;46.038;14.612;2022-07-23T07:19:55;32.67;;;18.98;;
21901;SDS011;11115;46.038;14.612;2022-07-23T07:25:02;25.52;;;18.75;;
21901;SDS011;11115;46.038;14.612;2022-07-23T07:27:36;27.90;;;18.55;;
21901;SDS011;11115;46.038;14.612;2022-07-23T07:30:14;29.95;;;19.40;;
21901;SDS011;11115;46.038;14.612;2022-07-23T07:33:01;28.38;;;18.98;;
21901;SDS011;11115;46.038;14.612;2022-07-23T07:35:42;39.85;;;18.60;;
21901;SDS011;11115;46.038;14.612;2022-07-23T07:38:12;31.75;;;19.98;;
21901;SDS011;11115;46.038;14.612;2022-07-23T07:40:46;23.92;;;17.40;;
21901;SDS011;11115;46.038;14.612;2022-07-23T07:43:17;39.78;;;19.40;;
21901;SDS011;11115;46.038;14.612;2022-07-23T07:45:53;34.50;;;18.10;;
21901;SDS011;11115;46.038;14.612;2022-07-23T07:48:23;27.02;;;17.98;;
21901;SDS011;11115;46.038;14.612;2022-07-23T07:50:58;28.30;;;19.60;;
21901;SDS011;11115;46.038;14.612;2022-07-23T07:53:37;28.77;;;19.58;;
21901;SDS011;11115;46.038;14.612;2022-07-23T07:56:19;28.15;;;19.05;;
21901;SDS011;11115;46.038;14.612;2022-07-23T07:58:51;32.80;;;19.33;;
21901;SDS011;11115;46.038;14.612;2022-07-23T08:01:28;26.48;;;19.40;;
21901;SDS011;11115;46.038;14.612;2022-07-23T08:04:12;26.45;;;20.30;;
21901;SDS011;11115;46.038;14.612;2022-07-23T08:06:47;27.67;;;19.65;;
21901;SDS011;11115;46.038;14.612;2022-07-23T08:09:25;31.38;;;21.00;;
21901;SDS011;11115;46.038;14.612;2022-07-23T08:12:00;27.45;;;21.13;;
21901;SDS011;11115;46.038;14.612;2022-07-23T08:14:30;24.60;;;20.20;;
21901;SDS011;11115;46.038;14.612;2022-07-23T08:17:04;31.83;;;21.40;;
21901;SDS011;11115;46.038;14.612;2022-07-23T08:19:49;33.75;;;21.92;;
21901;SDS011;11115;46.038;14.612;2022-07-23T08:24:55;29.02;;;21.33;;
21901;SDS011;11115;46.038;14.612;2022-07-23T08:27:34;35.55;;;22.35;;
21901;SDS011;11115;46.038;14.612;2022-07-23T08:30:09;37.60;;;23.60;;
21901;SDS011;11115;46.038;14.612;2022-07-23T08:32:48;56.90;;;23.88;;
21901;SDS011;11115;46.038;14.612;2022-07-23T08:35:35;39.75;;;22.10;;
21901;SDS011;11115;46.038;14.612;2022-07-23T08:38:20;30.45;;;22.63;;
21901;SDS011;11115;46.038;14.612;2022-07-23T08:40:57;31.48;;;21.70;;
21901;SDS011;11115;46.038;14.612;2022-07-23T08:43:34;29.15;;;22.70;;
21901;SDS011;11115;46.038;14.612;2022-07-23T08:46:10;30.65;;;22.75;;
21901;SDS011;11115;46.038;14.612;2022-07-23T08:48:51;30.10;;;23.23;;
21901;SDS011;11115;46.038;14.612;2022-07-23T08:51:24;32.15;;;23.08;;
21901;SDS011;11115;46.038;14.612;2022-07-23T08:53:57;28.00;;;21.75;;
21901;SDS011;11115;46.038;14.612;2022-07-23T08:56:29;27.20;;;23.05;;
21901;SDS011;11115;46.038;14.612;2022-07-23T08:59:03;27.27;;;22.58;;
21901;SDS011;11115;46.038;14.612;2022-07-23T09:01:37;35.08;;;26.05;;
21901;SDS011;11115;46.038;14.612;2022-07-23T09:04:18;29.17;;;23.77;;
21901;SDS011;11115;46.038;14.612;2022-07-23T09:06:54;34.38;;;19.92;;
21901;SDS011;11115;46.038;14.612;2022-07-23T09:09:32;37.58;;;24.25;;
21901;SDS011;11115;46.038;14.612;2022-07-23T09:12:10;32.40;;;25.42;;
21901;SDS011;11115;46.038;14.612;2022-07-23T09:14:46;31.77;;;26.50;;
21901;SDS011;11115;46.038;14.612;2022-07-23T09:17:19;36.90;;;25.75;;
21901;SDS011;11115;46.038;14.612;2022-07-23T09:19:53;28.85;;;25.17;;
21901;SDS011;11115;46.038;14.612;2022-07-23T09:22:48;101.22;;;32.17;;
21901;SDS011;11115;46.038;14.612;2022-07-23T09:25:40;31.58;;;24.23;;
21901;SDS011;11115;46.038;14.612;2022-07-23T09:28:15;33.13;;;25.27;;
21901;SDS011;11115;46.038;14.612;2022-07-23T09:30:53;31.48;;;23.67;;
21901;SDS011;11115;46.038;14.612;2022-07-23T09:33:26;32.15;;;24.25;;
21901;SDS011;11115;46.038;14.612;2022-07-23T09:35:57;27.92;;;22.60;;
21901;SDS011;11115;46.038;14.612;2022-07-23T09:38:51;26.58;;;20.75;;
21901;SDS011;11115;46.038;14.612;2022-07-23T09:41:39;30.65;;;22.35;;
21901;SDS011;11115;46.038;14.612;2022-07-23T09:44:17;24.83;;;20.35;;
21901;SDS011;11115;46.038;14.612;2022-07-23T09:46:59;25.20;;;19.25;;
21901;SDS011;11115;46.038;14.612;2022-07-23T09:49:33;23.33;;;20.83;;
21901;SDS011;11115;46.038;14.612;2022-07-23T09:52:11;32.83;;;21.25;;
21901;SDS011;11115;46.038;14.612;2022-07-23T09:55:04;32.70;;;19.77;;
21901;SDS011;11115;46.038;14.612;2022-07-23T09:57:42;26.85;;;18.58;;
21901;SDS011;11115;46.038;14.612;2022-07-23T10:00:23;30.40;;;18.80;;
21901;SDS011;11115;46.038;14.612;2022-07-23T10:05:42;25.13;;;19.50;;
21901;SDS011;11115;46.038;14.612;2022-07-23T10:08:35;22.63;;;17.40;;
21901;SDS011;11115;46.038;14.612;2022-07-23T10:11:28;24.30;;;16.25;;
21901;SDS011;11115;46.038;14.612;2022-07-23T10:14:25;17.70;;;14.40;;
21901;SDS011;11115;46.038;14.612;2022-07-23T10:17:10;27.63;;;15.02;;
21901;SDS011;11115;46.038;14.612;2022-07-23T10:19:44;29.38;;;15.60;;
21901;SDS011;11115;46.038;14.612;2022-07-23T10:22:27;21.60;;;15.77;;
21901;SDS011;11115;46.038;14.612;2022-07-23T10:28:30;22.92;;;17.48;;
21901;SDS011;11115;46.038;14.612;2022-07-23T10:31:37;29.40;;;16.20;;
21901;SDS011;11115;46.038;14.612;2022-07-23T10:34:53;21.60;;;17.42;;
21901;SDS011;11115;46.038;14.612;2022-07-23T10:37:40;18.38;;;16.25;;
21901;SDS011;11115;46.038;14.612;2022-07-23T10:40:20;24.67;;;15.98;;
21901;SDS011;11115;46.038;14.612;2022-07-23T10:42:52;19.02;;;16.35;;
21901;SDS011;11115;46.038;14.612;2022-07-23T10:45:49;16.08;;;12.20;;
21901;SDS011;11115;46.038;14.612;2022-07-23T10:48:25;14.85;;;11.88;;
21901;SDS011;11115;46.038;14.612;2022-07-23T10:51:15;15.10;;;11.95;;
21901;SDS011;11115;46.038;14.612;2022-07-23T11:02:50;19.83;;;8.57;;
21901;SDS011;11115;46.038;14.612;2022-07-23T11:05:23;15.18;;;7.97;;
21901;SDS011;11115;46.038;14.612;2022-07-23T11:10:42;11.63;;;8.18;;
21901;SDS011;11115;46.038;14.612;2022-07-23T11:16:22;29.83;;;9.57;;
21901;SDS011;11115;46.038;14.612;2022-07-23T11:19:09;11.23;;;8.73;;
21901;SDS011;11115;46.038;14.612;2022-07-23T11:21:48;10.77;;;8.80;;
21901;SDS011;11115;46.038;14.612;2022-07-23T11:24:19;14.25;;;7.57;;
21901;SDS011;11115;46.038;14.612;2022-07-23T11:26:56;12.70;;;8.82;;
21901;SDS011;11115;46.038;14.612;2022-07-23T11:29:37;13.60;;;8.18;;
21901;SDS011;11115;46.038;14.612;2022-07-23T11:32:23;10.90;;;8.23;;
21901;SDS011;11115;46.038;14.612;2022-07-23T11:35:00;9.73;;;8.52;;
21901;SDS011;11115;46.038;14.612;2022-07-23T11:37:38;16.75;;;9.75;;
21901;SDS011;11115;46.038;14.612;2022-07-23T11:40:13;19.95;;;9.52;;
21901;SDS011;11115;46.038;14.612;2022-07-23T11:43:05;13.07;;;9.45;;
21901;SDS011;11115;46.038;14.612;2022-07-23T11:45:41;18.10;;;9.93;;
21901;SDS011;11115;46.038;14.612;2022-07-23T11:51:07;67.80;;;12.80;;
21901;SDS011;11115;46.038;14.612;2022-07-23T11:53:39;12.05;;;9.50;;
21901;SDS011;11115;46.038;14.612;2022-07-23T11:56:16;13.77;;;10.25;;
21901;SDS011;11115;46.038;14.612;2022-07-23T11:58:58;17.63;;;10.90;;
21901;SDS011;11115;46.038;14.612;2022-07-23T12:01:32;13.10;;;10.05;;
21901;SDS011;11115;46.038;14.612;2022-07-23T12:04:03;15.43;;;9.50;;
21901;SDS011;11115;46.038;14.612;2022-07-23T12:06:37;19.33;;;11.13;;
21901;SDS011;11115;46.038;14.612;2022-07-23T12:09:06;18.80;;;11.25;;
21901;SDS011;11115;46.038;14.612;2022-07-23T12:12:00;21.50;;;11.05;;
21901;SDS011;11115;46.038;14.612;2022-07-23T12:14:54;20.02;;;12.05;;
21901;SDS011;11115;46.038;14.612;2022-07-23T12:17:36;16.65;;;11.15;;
21901;SDS011;11115;46.038;14.612;2022-07-23T12:20:18;20.05;;;11.77;;
21901;SDS011;11115;46.038;14.612;2022-07-23T12:25:34;19.52;;;10.95;;
21901;SDS011;11115;46.038;14.612;2022-07-23T12:30:53;16.42;;;10.70;;
21901;SDS011;11115;46.038;14.612;2022-07-23T12:33:39;14.07;;;10.63;;
21901;SDS011;11115;46.038;14.612;2022-07-23T12:36:12;14.52;;;10.05;;
21901;SDS011;11115;46.038;14.612;2022-07-23T12:38:52;25.38;;;11.02;;
21901;SDS011;11115;46.038;14.612;2022-07-23T12:41:24;17.80;;;10.82;;
21901;SDS011;11115;46.038;14.612;2022-07-23T12:43:57;21.30;;;10.63;;
21901;SDS011;11115;46.038;14.612;2022-07-23T12:46:48;19.30;;;10.10;;
21901;SDS011;11115;46.038;14.612;2022-07-23T12:49:25;19.38;;;10.13;;
21901;SDS011;11115;46.038;14.612;2022-07-23T12:52:15;13.60;;;9.55;;
21901;SDS011;11115;46.038;14.612;2022-07-23T12:54:49;11.52;;;9.10;;
21901;SDS011;11115;46.038;14.612;2022-07-23T13:00:06;16.08;;;9.38;;
21901;SDS011;11115;46.038;14.612;2022-07-23T13:02:46;17.40;;;8.68;;
21901;SDS011;11115;46.038;14.612;2022-07-23T13:05:18;18.17;;;8.73;;
21901;SDS011;11115;46.038;14.612;2022-07-23T13:07:53;10.73;;;8.63;;
21901;SDS011;11115;46.038;14.612;2022-07-23T13:10:24;13.05;;;8.20;;
21901;SDS011;11115;46.038;14.612;2022-07-23T13:12:55;23.02;;;7.70;;
21901;SDS011;11115;46.038;14.612;2022-07-23T13:15:26;13.05;;;6.15;;
21901;SDS011;11115;46.038;14.612;2022-07-23T13:17:58;17.60;;;6.35;;
21901;SDS011;11115;46.038;14.612;2022-07-23T13:20:47;11.18;;;6.47;;
21901;SDS011;11115;46.038;14.612;2022-07-23T13:23:24;5.63;;;4.80;;
21901;SDS011;11115;46.038;14.612;2022-07-23T13:26:14;12.60;;;5.07;;
21901;SDS011;11115;46.038;14.612;2022-07-23T13:28:52;20.00;;;4.80;;
21901;SDS011;11115;46.038;14.612;2022-07-23T13:31:32;12.23;;;4.55;;
21901;SDS011;11115;46.038;14.612;2022-07-23T13:34:13;10.20;;;4.45;;
21901;SDS011;11115;46.038;14.612;2022-07-23T13:36:55;10.10;;;4.13;;
21901;SDS011;11115;46.038;14.612;2022-07-23T13:39:47;7.25;;;4.18;;
21901;SDS011;11115;46.038;14.612;2022-07-23T13:42:23;13.75;;;4.35;;
21901;SDS011;11115;46.038;14.612;2022-07-23T13:44:58;15.73;;;4.10;;
21901;SDS011;11115;46.038;14.612;2022-07-23T13:47:41;16.33;;;3.75;;
21901;SDS011;11115;46.038;14.612;2022-07-23T13:50:12;8.35;;;3.65;;
21901;SDS011;11115;46.038;14.612;2022-07-23T13:52:49;10.52;;;3.97;;
21901;SDS011;11115;46.038;14.612;2022-07-23T13:55:23;7.57;;;3.40;;
21901;SDS011;11115;46.038;14.612;2022-07-23T13:57:54;9.98;;;3.35;;
21901;SDS011;11115;46.038;14.612;2022-07-23T14:00:33;6.00;;;3.80;;
21901;SDS011;11115;46.038;14.612;2022-07-23T14:03:27;9.68;;;4.18;;
21901;SDS011;11115;46.038;14.612;2022-07-23T14:05:58;6.47;;;3.90;;
21901;SDS011;11115;46.038;14.612;2022-07-23T14:08:43;17.67;;;5.03;;
21901;SDS011;11115;46.038;14.612;2022-07-23T14:11:21;12.77;;;4.45;;
21901;SDS011;11115;46.038;14.612;2022-07-23T14:14:01;13.48;;;3.55;;
21901;SDS011;11115;46.038;14.612;2022-07-23T14:16:31;7.77;;;3.37;;
21901;SDS011;11115;46.038;14.612;2022-07-23T14:19:10;10.20;;;3.25;;
21901;SDS011;11115;46.038;14.612;2022-07-23T14:21:39;14.00;;;3.20;;
21901;SDS011;11115;46.038;14.612;2022-07-23T14:24:11;8.10;;;3.40;;
21901;SDS011;11115;46.038;14.612;2022-07-23T14:26:49;10.95;;;3.92;;
21901;SDS011;11115;46.038;14.612;2022-07-23T14:29:22;10.27;;;3.20;;
21901;SDS011;11115;46.038;14.612;2022-07-23T14:32:02;7.47;;;3.45;;
21901;SDS011;11115;46.038;14.612;2022-07-23T14:34:34;9.65;;;3.50;;
21901;SDS011;11115;46.038;14.612;2022-07-23T14:37:09;12.77;;;3.75;;
21901;SDS011;11115;46.038;14.612;2022-07-23T14:39:43;11.27;;;3.00;;
21901;SDS011;11115;46.038;14.612;2022-07-23T14:42:22;6.03;;;2.90;;
21901;SDS011;11115;46.038;14.612;2022-07-23T14:44:56;11.77;;;3.10;;
21901;SDS011;11115;46.038;14.612;2022-07-23T14:47:36;10.10;;;2.80;;
21901;SDS011;11115;46.038;14.612;2022-07-23T14:50:05;13.43;;;3.33;;
21901;SDS011;11115;46.038;14.612;2022-07-23T14:52:37;8.50;;;3.95;;
21901;SDS011;11115;46.038;14.612;2022-07-23T14:55:16;8.85;;;3.15;;
21901;SDS011;11115;46.038;14.612;2022-07-23T14:57:48;7.90;;;3.40;;
21901;SDS011;11115;46.038;14.612;2022-07-23T15:00:23;12.90;;;2.97;;
21901;SDS011;11115;46.038;14.612;2022-07-23T15:02:56;5.90;;;2.90;;
21901;SDS011;11115;46.038;14.612;2022-07-23T15:05:29;12.05;;;2.90;;
21901;SDS011;11115;46.038;14.612;2022-07-23T15:08:09;11.70;;;3.75;;
21901;SDS011;11115;46.038;14.612;2022-07-23T15:10:50;9.30;;;2.95;;
21901;SDS011;11115;46.038;14.612;2022-07-23T15:13:27;8.73;;;3.17;;
21901;SDS011;11115;46.038;14.612;2022-07-23T15:16:04;9.77;;;3.25;;
21901;SDS011;11115;46.038;14.612;2022-07-23T15:18:48;10.52;;;3.20;;
21901;SDS011;11115;46.038;14.612;2022-07-23T15:21:30;7.82;;;3.50;;
21901;SDS011;11115;46.038;14.612;2022-07-23T15:24:14;7.40;;;3.25;;
21901;SDS011;11115;46.038;14.612;2022-07-23T15:26:46;10.73;;;3.03;;
21901;SDS011;11115;46.038;14.612;2022-07-23T15:29:21;14.07;;;3.03;;
21901;SDS011;11115;46.038;14.612;2022-07-23T15:31:56;17.30;;;3.10;;
21901;SDS011;11115;46.038;14.612;2022-07-23T15:34:37;9.95;;;3.28;;
21901;SDS011;11115;46.038;14.612;2022-07-23T15:37:14;8.02;;;4.07;;
21901;SDS011;11115;46.038;14.612;2022-07-23T15:39:46;8.30;;;3.85;;
21901;SDS011;11115;46.038;14.612;2022-07-23T15:42:18;11.35;;;4.32;;
21901;SDS011;11115;46.038;14.612;2022-07-23T15:44:54;6.10;;;3.65;;
21901;SDS011;11115;46.038;14.612;2022-07-23T15:47:32;9.50;;;3.33;;
21901;SDS011;11115;46.038;14.612;2022-07-23T15:50:11;12.43;;;3.53;;
21901;SDS011;11115;46.038;14.612;2022-07-23T15:52:41;6.53;;;3.88;;
21901;SDS011;11115;46.038;14.612;2022-07-23T15:55:15;7.32;;;3.38;;
21901;SDS011;11115;46.038;14.612;2022-07-23T15:57:54;11.80;;;3.25;;
21901;SDS011;11115;46.038;14.612;2022-07-23T16:00:24;8.60;;;3.50;;
21901;SDS011;11115;46.038;14.612;2022-07-23T16:03:02;9.52;;;3.03;;
21901;SDS011;11115;46.038;14.612;2022-07-23T16:05:56;6.10;;;3.05;;
21901;SDS011;11115;46.038;14.612;2022-07-23T16:08:25;8.93;;;3.53;;